KAWO/AWO METAR and TAF weather

Enter ICAO airport designator
Station Type Date Time Source
KAWO METAR 2019/04/25 21:56 UTC NOAA

KAWO 252156Z AUTO 30012KT 10SM CLR 16/08 A3012 RMK AO2 SLP203 T01560078 $


Station Type Date Time Source
KAWO Decoded METAR 2019/04/25 21:56 UTC NOAA

Arlington Municipal, WA, United States (KAWO) 48-10N 122-10W
Apr 25, 2019 - 05:56 PM EDT / 2019.04.25 2156 UTC
Wind: from the WNW (300 degrees) at 14 MPH (12 KT):0
Visibility: 10 mile(s):0
Sky conditions: clear
Temperature: 60.1 F (15.6 C)
Dew Point: 46.0 F (7.8 C)
Relative Humidity: 59%
Pressure (altimeter): 30.12 in. Hg (1019 hPa)
ob: KAWO 252156Z AUTO 30012KT 10SM CLR 16/08 A3012 RMK AO2 SLP203 T01560078
cycle: 22

Station Type Date Time Source
KAWO TAF UTC NOAA

Error!

Example: see airport list